Time;durP1;ratioP1;P1;durP2;ratioP2;P2;SDS_P1;SDS_P2;PMS_P1;PMS_P2;Temp;Humidity;BMP_temperature;BMP_pressure;BME280_temperature;BME280_humidity;BME280_pressure;Samples;Min_cycle;Max_cycle;Signal;HPM_P1;HPM_P2
2022/06/26 00:01:36;;;;;;;14.15;7.95;;;23.90;90.40;;;;;;5062942;28;20250;-65
2022/06/26 00:04:02;;;;;;;13.35;8.30;;;23.80;90.50;;;;;;5070927;28;20041;-65
2022/06/26 00:06:28;;;;;;;14.57;9.18;;;23.80;90.60;;;;;;5074218;28;20472;-65
2022/06/26 00:09:00;;;;;;;12.43;9.52;;;23.80;90.60;;;;;;5070980;28;20037;-65
2022/06/26 00:11:26;;;;;;;13.27;8.98;;;23.70;90.70;;;;;;5074250;28;20499;-64
2022/06/26 00:13:51;;;;;;;14.55;9.60;;;23.70;90.40;;;;;;5054836;28;20033;-64
2022/06/26 00:16:18;;;;;;;17.67;11.20;;;23.70;90.50;;;;;;5065464;28;20028;-65
2022/06/26 00:18:44;;;;;;;16.85;11.80;;;23.70;90.60;;;;;;5072749;28;20055;-65
2022/06/26 00:21:09;;;;;;;18.60;11.75;;;23.60;90.60;;;;;;5063044;28;20029;-65
2022/06/26 00:23:35;;;;;;;16.23;12.80;;;23.60;90.70;;;;;;5055528;28;20124;-65
2022/06/26 00:26:06;;;;;;;22.00;13.80;;;23.60;90.90;;;;;;5066384;28;20029;-65
2022/06/26 00:28:32;;;;;;;19.25;15.23;;;23.60;91.00;;;;;;5065848;28;20039;-65
2022/06/26 00:30:58;;;;;;;21.70;16.25;;;23.60;91.00;;;;;;5066244;28;20017;-65
2022/06/26 00:33:24;;;;;;;22.08;16.25;;;23.50;91.10;;;;;;5067378;28;20420;-65
2022/06/26 00:35:50;;;;;;;22.15;15.77;;;23.50;91.20;;;;;;5073066;28;20032;-65
2022/06/26 00:38:16;;;;;;;26.05;17.38;;;23.50;91.20;;;;;;5072839;28;20037;-65
2022/06/26 00:40:42;;;;;;;25.83;17.98;;;23.50;91.40;;;;;;5065152;28;20138;-65
2022/06/26 00:43:09;;;;;;;29.60;19.35;;;23.40;91.40;;;;;;5071077;28;20028;-65
2022/06/26 00:45:35;;;;;;;33.47;18.52;;;23.40;91.50;;;;;;5066102;28;20510;-65
2022/06/26 00:48:01;;;;;;;25.00;18.77;;;23.40;91.60;;;;;;5069597;28;20071;-65
2022/06/26 00:50:27;;;;;;;29.17;18.65;;;23.40;91.70;;;;;;5056990;28;20029;-65
2022/06/26 00:52:54;;;;;;;25.27;18.88;;;23.40;91.70;;;;;;5067727;28;20028;-65
2022/06/26 00:55:20;;;;;;;31.33;19.75;;;23.40;92.00;;;;;;5069103;28;20031;-65
2022/06/26 00:57:47;;;;;;;25.88;20.23;;;23.40;91.80;;;;;;5067052;28;20032;-65
2022/06/26 01:00:14;;;;;;;31.30;20.33;;;23.40;91.80;;;;;;5064311;28;20559;-65
2022/06/26 01:02:40;;;;;;;33.65;21.25;;;23.30;91.90;;;;;;5059056;28;20116;-65
2022/06/26 01:05:07;;;;;;;28.75;21.05;;;23.30;92.00;;;;;;5071044;28;20040;-65
2022/06/26 01:07:33;;;;;;;29.17;20.42;;;23.40;92.00;;;;;;5070048;28;20111;-65
2022/06/26 01:09:59;;;;;;;33.10;21.63;;;23.30;92.00;;;;;;5072558;28;20119;-65
2022/06/26 01:12:25;;;;;;;29.08;22.20;;;23.30;92.10;;;;;;5057883;28;20021;-65
2022/06/26 01:14:51;;;;;;;31.60;22.13;;;23.30;92.20;;;;;;5071875;28;20021;-65
2022/06/26 01:17:17;;;;;;;39.33;22.55;;;23.20;92.20;;;;;;5069183;28;20044;-65
2022/06/26 01:19:44;;;;;;;31.38;22.90;;;23.20;92.30;;;;;;5068475;28;20504;-65
2022/06/26 01:22:10;;;;;;;31.88;21.90;;;23.20;92.30;;;;;;5064392;28;20025;-65
2022/06/26 01:24:36;;;;;;;35.22;23.15;;;23.20;92.40;;;;;;5057426;28;20040;-65
2022/06/26 01:27:02;;;;;;;36.72;23.00;;;23.20;92.40;;;;;;5059997;28;20017;-65
2022/06/26 01:29:29;;;;;;;31.60;22.60;;;23.20;92.50;;;;;;5066418;28;20032;-65
2022/06/26 01:31:55;;;;;;;33.22;23.13;;;23.20;92.50;;;;;;5057676;28;20052;-65
2022/06/26 01:34:21;;;;;;;32.72;23.80;;;23.20;92.60;;;;;;5061370;28;20035;-65
2022/06/26 01:36:56;;;;;;;24.98;14.48;;;23.20;92.70;;;;;;5056362;28;20025;-65
2022/06/26 01:39:22;;;;;;;11.13;7.05;;;23.10;92.10;;;;;;5072007;28;20036;-65
2022/06/26 01:41:49;;;;;;;25.58;15.93;;;23.10;90.10;;;;;;5066042;28;20020;-65
2022/06/26 01:44:15;;;;;;;26.52;17.65;;;23.00;90.60;;;;;;5071061;28;20029;-65
2022/06/26 01:46:41;;;;;;;6.55;3.92;;;22.90;91.10;;;;;;5055662;28;20369;-65
2022/06/26 01:49:08;;;;;;;12.35;8.02;;;22.90;90.20;;;;;;5057700;28;20029;-65
2022/06/26 01:51:36;;;;;;;29.13;15.60;;;22.80;90.50;;;;;;5063296;28;20124;-65
2022/06/26 01:54:02;;;;;;;21.40;14.35;;;22.80;91.00;;;;;;5063263;28;20123;-65
2022/06/26 01:56:29;;;;;;;18.48;11.07;;;22.80;91.10;;;;;;5070365;28;20017;-65
2022/06/26 01:58:55;;;;;;;15.55;10.40;;;22.80;90.80;;;;;;5069698;28;20037;-65
2022/06/26 02:01:26;;;;;;;17.30;11.02;;;22.80;90.90;;;;;;5063378;28;20512;-66
2022/06/26 02:03:52;;;;;;;17.83;11.88;;;22.70;90.90;;;;;;5050666;28;20036;-65
2022/06/26 02:06:18;;;;;;;16.83;11.20;;;22.70;91.30;;;;;;5070615;28;20500;-65
2022/06/26 02:08:44;;;;;;;20.08;9.88;;;22.80;91.60;;;;;;5061083;28;20031;-66
2022/06/26 02:13:55;;;;;;;17.13;10.20;;;22.70;90.90;;;;;;5066467;28;20484;-66
2022/06/26 02:16:28;;;;;;;11.85;9.02;;;22.70;91.00;;;;;;5068083;28;20031;-66
2022/06/26 02:18:57;;;;;;;13.05;8.73;;;22.70;91.10;;;;;;5067051;28;20064;-66
2022/06/26 02:21:27;;;;;;;20.60;10.52;;;22.70;91.00;;;;;;5060547;28;20017;-66
2022/06/26 02:23:56;;;;;;;14.48;8.00;;;22.70;91.20;;;;;;5057162;28;20032;-66
2022/06/26 02:26:23;;;;;;;12.93;8.88;;;22.70;91.00;;;;;;5060831;28;20025;-66
2022/06/26 02:28:54;;;;;;;14.40;8.98;;;22.70;91.00;;;;;;5069505;28;20048;-66
2022/06/26 02:31:20;;;;;;;11.75;8.90;;;22.70;91.00;;;;;;5057895;28;20147;-66
2022/06/26 02:33:47;;;;;;;13.63;8.52;;;22.60;91.00;;;;;;5063732;28;20029;-66
2022/06/26 02:36:14;;;;;;;14.77;8.40;;;22.70;91.20;;;;;;5065506;28;20025;-66
2022/06/26 02:38:40;;;;;;;13.98;8.65;;;22.70;91.20;;;;;;5069660;28;20044;-66
2022/06/26 02:41:06;;;;;;;12.55;8.07;;;22.60;91.20;;;;;;5072974;28;20028;-66
2022/06/26 02:43:33;;;;;;;13.50;7.18;;;22.70;91.40;;;;;;5058141;28;20610;-66
2022/06/26 02:46:02;;;;;;;10.85;6.50;;;22.70;91.30;;;;;;5074546;28;20020;-66
2022/06/26 02:48:28;;;;;;;10.75;6.70;;;22.70;91.10;;;;;;5073433;28;20032;-66
2022/06/26 02:50:54;;;;;;;9.70;6.22;;;22.70;90.70;;;;;;5073788;28;20024;-66
2022/06/26 02:53:20;;;;;;;14.82;6.30;;;22.60;90.60;;;;;;5073693;28;20032;-66
2022/06/26 02:55:46;;;;;;;9.73;5.45;;;22.60;90.40;;;;;;5073675;28;20063;-66
2022/06/26 02:58:14;;;;;;;9.18;3.72;;;22.60;90.30;;;;;;5072522;28;20040;-66
2022/06/26 03:00:55;;;;;;;13.77;5.47;;;22.60;90.20;;;;;;5073984;28;20488;-66
2022/06/26 03:03:21;;;;;;;9.18;4.32;;;22.60;90.30;;;;;;5072359;28;20022;-66
2022/06/26 03:05:47;;;;;;;7.22;2.60;;;22.50;90.30;;;;;;5073178;28;20399;-66
2022/06/26 03:08:13;;;;;;;7.10;4.03;;;22.50;90.30;;;;;;5073174;28;20111;-65
2022/06/26 03:10:39;;;;;;;9.85;3.97;;;22.40;90.40;;;;;;5073289;28;20487;-66
2022/06/26 03:13:04;;;;;;;11.35;4.00;;;22.40;90.50;;;;;;5073008;28;20029;-66
2022/06/26 03:15:33;;;;;;;9.60;4.60;;;22.40;90.80;;;;;;5073720;28;20438;-65
2022/06/26 03:18:02;;;;;;;8.80;3.90;;;22.30;91.00;;;;;;5059804;28;20017;-65
2022/06/26 03:20:28;;;;;;;9.25;5.20;;;22.30;90.70;;;;;;5063647;28;20044;-66
2022/06/26 03:22:54;;;;;;;8.93;4.43;;;22.30;90.90;;;;;;5073185;28;20035;-65
2022/06/26 03:25:20;;;;;;;7.38;4.43;;;22.30;91.00;;;;;;5072916;28;20111;-66
2022/06/26 03:27:46;;;;;;;14.30;4.35;;;22.30;91.10;;;;;;5059472;28;20020;-66
2022/06/26 03:30:14;;;;;;;7.55;4.22;;;22.30;91.00;;;;;;5073147;28;20031;-66
2022/06/26 03:32:45;;;;;;;9.43;4.65;;;22.30;90.80;;;;;;5071931;28;20029;-66
2022/06/26 03:35:14;;;;;;;7.90;4.25;;;22.30;91.00;;;;;;5073169;28;20078;-65
2022/06/26 03:37:41;;;;;;;6.65;3.80;;;22.30;91.10;;;;;;5073970;28;20030;-66
2022/06/26 03:40:08;;;;;;;5.97;3.40;;;22.30;91.10;;;;;;5066658;28;20039;-66
2022/06/26 03:42:34;;;;;;;4.95;3.15;;;22.30;91.10;;;;;;5053965;28;20659;-66
2022/06/26 03:45:00;;;;;;;5.25;3.10;;;22.30;91.10;;;;;;5071487;28;20052;-65
2022/06/26 03:47:26;;;;;;;6.32;3.17;;;22.30;91.10;;;;;;5060626;28;20484;-65
2022/06/26 03:49:54;;;;;;;9.98;3.08;;;22.30;91.20;;;;;;5065413;28;20499;-66
2022/06/26 03:52:22;;;;;;;7.70;3.45;;;22.30;91.10;;;;;;5051097;28;20021;-66
2022/06/26 03:54:50;;;;;;;8.00;3.13;;;22.30;91.10;;;;;;5053470;28;20056;-66
2022/06/26 03:57:19;;;;;;;9.52;3.63;;;22.30;91.00;;;;;;5066925;28;20043;-65
2022/06/26 03:59:46;;;;;;;6.13;3.22;;;22.30;91.10;;;;;;5072502;28;20482;-66
2022/06/26 04:02:18;;;;;;;9.68;2.63;;;22.30;91.20;;;;;;5057935;28;20106;-66
2022/06/26 04:04:47;;;;;;;7.70;3.38;;;22.20;91.10;;;;;;5062337;28;20048;-65
2022/06/26 04:07:13;;;;;;;6.43;2.85;;;22.20;91.00;;;;;;5068951;28;20020;-65
2022/06/26 04:09:40;;;;;;;6.82;2.22;;;22.20;91.00;;;;;;5062363;28;20035;-65
2022/06/26 04:12:17;;;;;;;4.05;2.35;;;22.20;90.90;;;;;;5058312;28;20531;-66
2022/06/26 04:14:43;;;;;;;5.53;2.50;;;22.20;90.90;;;;;;5061175;28;20029;-66
2022/06/26 04:17:09;;;;;;;3.05;2.33;;;22.20;90.70;;;;;;5056457;28;20058;-66
2022/06/26 04:19:40;;;;;;;6.82;2.72;;;22.20;90.80;;;;;;5060793;28;20065;-66
2022/06/26 04:22:07;;;;;;;5.88;2.50;;;22.20;91.00;;;;;;5064754;28;20021;-65
2022/06/26 04:24:33;;;;;;;10.52;2.90;;;22.10;91.00;;;;;;5065474;28;20506;-65
2022/06/26 04:27:00;;;;;;;4.68;2.50;;;22.10;90.90;;;;;;5065491;28;20025;-65
2022/06/26 04:29:26;;;;;;;3.08;2.08;;;22.10;91.00;;;;;;5059950;28;20037;-66
2022/06/26 04:31:52;;;;;;;5.38;2.55;;;22.10;91.30;;;;;;5056854;28;20384;-66
2022/06/26 04:34:21;;;;;;;7.25;2.78;;;22.10;90.90;;;;;;5059961;28;20032;-65
2022/06/26 04:36:47;;;;;;;5.85;2.55;;;22.10;90.90;;;;;;5065304;28;20479;-66
2022/06/26 04:39:18;;;;;;;5.75;2.50;;;22.10;90.90;;;;;;5064546;28;20051;-65
2022/06/26 04:41:48;;;;;;;4.80;2.50;;;22.10;91.10;;;;;;5070174;28;20074;-65
2022/06/26 04:44:13;;;;;;;3.35;2.13;;;22.10;91.20;;;;;;5072597;28;20033;-65
2022/06/26 04:46:41;;;;;;;6.40;2.75;;;22.10;91.10;;;;;;5052887;28;20388;-65
2022/06/26 04:49:08;;;;;;;5.07;2.45;;;22.10;91.10;;;;;;5064165;28;20086;-66
2022/06/26 04:51:37;;;;;;;4.80;2.20;;;22.10;90.90;;;;;;5065774;28;20025;-66
2022/06/26 04:54:15;;;;;;;4.55;2.35;;;22.00;90.70;;;;;;5051989;28;20058;-65
2022/06/26 04:56:41;;;;;;;5.97;2.42;;;22.10;90.70;;;;;;5059789;28;20450;-66
2022/06/26 04:59:07;;;;;;;5.80;2.20;;;22.00;90.70;;;;;;5071214;28;20077;-66
2022/06/26 05:01:35;;;;;;;4.10;2.00;;;22.00;90.60;;;;;;5063462;28;20056;-66
2022/06/26 05:04:16;;;;;;;3.65;2.17;;;22.00;90.60;;;;;;5049541;28;20033;-66
2022/06/26 05:06:46;;;;;;;5.20;2.42;;;22.00;90.50;;;;;;5062765;28;20028;-65
2022/06/26 05:09:25;;;;;;;9.88;2.92;;;22.00;90.60;;;;;;5064682;28;20048;-66
2022/06/26 05:11:52;;;;;;;4.68;2.83;;;21.90;90.80;;;;;;5064947;28;20067;-65
2022/06/26 05:14:19;;;;;;;6.57;2.97;;;22.00;90.90;;;;;;5070849;28;20021;-65
2022/06/26 05:16:57;;;;;;;4.65;2.33;;;21.90;91.10;;;;;;5062694;28;20036;-65
2022/06/26 05:19:29;;;;;;;4.32;2.65;;;21.90;91.10;;;;;;5066998;28;20119;-66
2022/06/26 05:21:57;;;;;;;7.00;2.78;;;21.90;91.20;;;;;;5062261;28;20435;-65
2022/06/26 05:24:23;;;;;;;5.55;2.42;;;22.00;91.20;;;;;;5063704;28;20029;-66
2022/06/26 05:26:49;;;;;;;4.68;2.58;;;22.00;91.20;;;;;;5061089;28;20032;-66
2022/06/26 05:29:14;;;;;;;8.40;2.63;;;21.90;91.30;;;;;;5070882;28;20029;-66
2022/06/26 05:31:40;;;;;;;4.18;2.30;;;21.90;91.00;;;;;;5058974;28;20025;-66
2022/06/26 05:34:06;;;;;;;4.90;2.42;;;21.90;90.90;;;;;;5061744;28;20396;-66
2022/06/26 05:36:33;;;;;;;5.82;2.92;;;21.90;91.00;;;;;;5066435;28;20074;-66
2022/06/26 05:39:03;;;;;;;3.83;2.80;;;21.90;91.30;;;;;;5070283;28;20047;-67
2022/06/26 05:41:31;;;;;;;4.72;2.65;;;21.90;91.20;;;;;;5057034;28;20116;-66
2022/06/26 05:43:57;;;;;;;4.13;2.55;;;21.90;91.00;;;;;;5061692;28;20545;-66
2022/06/26 05:46:25;;;;;;;2.97;2.05;;;21.90;91.00;;;;;;5053837;28;20043;-66
2022/06/26 05:49:09;;;;;;;6.28;2.38;;;21.90;91.00;;;;;;5058953;28;20401;-66
2022/06/26 05:52:10;;;;;;;8.63;2.20;;;21.90;90.90;;;;;;5070198;28;20119;-66
2022/06/26 05:54:53;;;;;;;4.37;1.83;;;21.90;90.60;;;;;;5070808;28;20037;-66
2022/06/26 05:57:39;;;;;;;3.30;2.22;;;21.90;90.70;;;;;;5068225;28;20020;-66
2022/06/26 06:00:26;;;;;;;2.38;1.50;;;21.80;91.10;;;;;;5063494;28;20051;-66
2022/06/26 06:02:55;;;;;;;5.68;2.63;;;21.80;91.00;;;;;;5066039;28;20025;-66
2022/06/26 06:05:21;;;;;;;2.72;1.63;;;21.80;91.30;;;;;;5063906;28;20106;-66
2022/06/26 06:07:48;;;;;;;4.60;2.50;;;21.70;91.20;;;;;;5057477;28;20036;-66
2022/06/26 06:10:13;;;;;;;4.70;3.05;;;21.80;91.50;;;;;;5069448;28;20400;-66
2022/06/26 06:12:41;;;;;;;7.22;2.85;;;21.80;91.60;;;;;;5050318;28;20036;-66
2022/06/26 06:15:08;;;;;;;4.70;2.92;;;21.70;91.70;;;;;;5063903;28;20028;-66
2022/06/26 06:17:36;;;;;;;4.32;2.38;;;21.70;91.70;;;;;;5066299;28;20036;-66
2022/06/26 06:20:11;;;;;;;12.38;3.33;;;21.80;91.50;;;;;;5069667;28;20068;-66
2022/06/26 06:22:39;;;;;;;5.35;3.15;;;21.80;91.80;;;;;;5063220;28;20032;-66
2022/06/26 06:25:06;;;;;;;8.80;4.70;;;21.70;91.70;;;;;;5070333;28;20136;-66
2022/06/26 06:27:32;;;;;;;7.75;4.55;;;21.80;91.90;;;;;;5065153;28;20031;-66
2022/06/26 06:30:06;;;;;;;8.00;4.47;;;21.80;91.90;;;;;;5063054;28;20024;-66
2022/06/26 06:32:32;;;;;;;6.50;4.35;;;21.80;92.00;;;;;;5061108;28;20044;-66
2022/06/26 06:34:59;;;;;;;4.22;3.35;;;21.80;91.90;;;;;;5055018;28;20028;-66
2022/06/26 06:37:28;;;;;;;7.40;4.45;;;21.80;91.90;;;;;;5069773;28;20028;-66
2022/06/26 06:39:54;;;;;;;5.15;3.22;;;21.70;92.20;;;;;;5066432;28;20060;-66
2022/06/26 06:42:21;;;;;;;5.93;3.70;;;21.80;92.20;;;;;;5051059;28;20103;-66
2022/06/26 06:44:47;;;;;;;6.45;3.30;;;21.70;92.20;;;;;;5053971;28;20115;-67
2022/06/26 06:47:33;;;;;;;7.55;4.07;;;21.70;92.40;;;;;;5058577;28;20392;-66
2022/06/26 06:50:22;;;;;;;16.15;8.82;;;21.70;92.40;;;;;;5048127;28;20119;-66
2022/06/26 06:52:50;;;;;;;10.15;6.70;;;21.70;92.90;;;;;;5057133;28;20120;-66
2022/06/26 06:55:16;;;;;;;8.95;4.55;;;21.70;92.80;;;;;;5049561;28;20064;-66
2022/06/26 06:57:41;;;;;;;7.43;4.78;;;21.80;92.70;;;;;;5059999;28;20048;-65
2022/06/26 07:00:08;;;;;;;8.68;5.30;;;21.80;92.80;;;;;;5061098;28;20041;-65
2022/06/26 07:02:43;;;;;;;3.75;2.25;;;21.80;92.60;;;;;;5057460;28;20090;-65
2022/06/26 07:05:09;;;;;;;7.82;4.28;;;21.90;92.40;;;;;;5067985;28;20054;-65
2022/06/26 07:07:38;;;;;;;5.70;3.63;;;21.80;92.50;;;;;;5059483;28;20403;-66
2022/06/26 07:10:05;;;;;;;7.38;4.53;;;21.90;92.50;;;;;;5057973;28;20484;-64
2022/06/26 07:12:30;;;;;;;11.35;6.07;;;21.90;92.70;;;;;;5057912;28;20025;-64
2022/06/26 07:14:56;;;;;;;11.77;8.00;;;21.90;92.70;;;;;;5064339;28;20098;-64
2022/06/26 07:17:23;;;;;;;12.38;8.20;;;21.80;92.80;;;;;;5051741;28;20111;-64
2022/06/26 07:19:53;;;;;;;12.05;7.15;;;21.90;92.90;;;;;;5055545;28;20395;-64
2022/06/26 07:22:19;;;;;;;10.60;7.15;;;21.90;92.90;;;;;;5066862;28;20024;-64
2022/06/26 07:24:46;;;;;;;11.30;6.97;;;22.00;92.90;;;;;;5054919;28;20025;-64
2022/06/26 07:27:31;;;;;;;9.73;5.82;;;22.00;92.90;;;;;;5065195;28;20039;-67
2022/06/26 07:29:57;;;;;;;10.23;6.45;;;22.00;92.60;;;;;;5053588;28;20020;-64
2022/06/26 07:32:22;;;;;;;13.30;6.93;;;22.00;92.60;;;;;;5061583;28;20021;-64
2022/06/26 07:34:51;;;;;;;11.15;7.10;;;22.00;92.60;;;;;;5048832;28;20502;-64
2022/06/26 07:37:18;;;;;;;13.63;7.40;;;22.10;92.60;;;;;;5065349;28;20085;-64
2022/06/26 07:39:44;;;;;;;11.10;7.22;;;22.10;92.70;;;;;;5051628;28;20152;-64
2022/06/26 07:42:12;;;;;;;12.07;8.00;;;22.20;92.60;;;;;;5062566;28;20033;-64
2022/06/26 07:44:40;;;;;;;11.15;7.10;;;22.10;92.60;;;;;;5057165;28;20115;-64
2022/06/26 07:47:09;;;;;;;15.18;9.43;;;22.10;92.50;;;;;;5059534;28;20025;-64
2022/06/26 07:49:56;;;;;;;10.48;6.68;;;22.20;92.50;;;;;;5057745;28;20028;-65
2022/06/26 07:52:21;;;;;;;9.23;6.30;;;22.20;92.40;;;;;;5067224;28;20036;-64
2022/06/26 07:54:47;;;;;;;10.18;6.38;;;22.20;92.40;;;;;;5068698;28;20029;-65
2022/06/26 07:57:13;;;;;;;14.18;6.97;;;22.20;92.50;;;;;;5067354;28;20027;-65
2022/06/26 07:59:39;;;;;;;10.80;7.57;;;22.20;92.50;;;;;;5068853;28;20036;-65
2022/06/26 08:02:05;;;;;;;11.52;7.90;;;22.30;92.60;;;;;;5067461;28;20127;-66
2022/06/26 08:04:30;;;;;;;10.43;7.22;;;22.30;92.80;;;;;;5066477;28;20049;-62
2022/06/26 08:06:56;;;;;;;9.75;7.63;;;22.30;92.40;;;;;;5066953;28;20422;-63
2022/06/26 08:09:22;;;;;;;15.57;7.75;;;22.30;92.40;;;;;;5067343;28;20626;-62
2022/06/26 08:11:49;;;;;;;9.25;6.03;;;22.30;92.30;;;;;;5065908;28;20013;-65
2022/06/26 08:14:15;;;;;;;15.15;9.02;;;22.40;92.30;;;;;;5066694;28;20036;-64
2022/06/26 08:16:43;;;;;;;17.80;8.10;;;22.40;92.30;;;;;;5067666;28;20031;-64
2022/06/26 08:19:09;;;;;;;11.10;5.93;;;22.30;92.30;;;;;;5064980;28;21411;-64
2022/06/26 08:24:19;;;;;;;10.13;6.30;;;22.30;92.30;;;;;;5062639;28;20425;-64
2022/06/26 08:26:45;;;;;;;14.98;9.55;;;22.30;92.30;;;;;;5062460;28;20031;-64
2022/06/26 08:29:11;;;;;;;17.58;9.30;;;22.20;92.50;;;;;;5065595;28;20032;-64
2022/06/26 08:31:36;;;;;;;13.07;8.15;;;22.30;92.50;;;;;;5066331;28;20456;-64
2022/06/26 08:34:05;;;;;;;9.20;5.93;;;22.30;92.40;;;;;;5069425;28;20021;-64
2022/06/26 08:36:30;;;;;;;14.40;6.30;;;22.30;92.40;;;;;;5066591;28;20029;-65
2022/06/26 08:38:56;;;;;;;9.07;5.45;;;22.30;92.40;;;;;;5065589;28;20050;-65
2022/06/26 08:41:28;;;;;;;8.02;5.22;;;22.30;92.40;;;;;;5066600;28;20032;-64
2022/06/26 08:43:59;;;;;;;8.10;5.40;;;22.40;92.50;;;;;;5061997;28;20024;-64
2022/06/26 08:46:27;;;;;;;8.15;4.63;;;22.40;92.40;;;;;;5064779;28;20043;-64
2022/06/26 08:48:57;;;;;;;7.40;4.05;;;22.40;92.20;;;;;;5065960;28;20446;-65
2022/06/26 08:51:23;;;;;;;11.82;6.55;;;22.50;92.00;;;;;;5061251;28;20025;-64
2022/06/26 08:53:51;;;;;;;9.18;5.63;;;22.50;92.00;;;;;;5067271;28;20029;-64
2022/06/26 08:56:17;;;;;;;11.63;6.38;;;22.50;92.00;;;;;;5065536;28;20020;-64
2022/06/26 08:58:43;;;;;;;13.50;5.72;;;22.60;92.00;;;;;;5064886;28;20491;-65
2022/06/26 09:01:09;;;;;;;9.27;5.82;;;22.60;91.90;;;;;;5066595;28;20067;-64
2022/06/26 09:03:35;;;;;;;9.00;5.55;;;22.60;91.80;;;;;;5061867;28;20024;-64
2022/06/26 09:06:02;;;;;;;10.98;5.90;;;22.70;91.80;;;;;;5064675;28;20060;-64
2022/06/26 09:08:30;;;;;;;9.02;6.85;;;22.70;91.70;;;;;;5064342;28;20048;-64
2022/06/26 09:10:58;;;;;;;10.18;6.75;;;22.70;91.60;;;;;;5062311;28;20029;-64
2022/06/26 09:13:34;;;;;;;15.57;6.82;;;22.70;91.50;;;;;;5063986;28;20511;-65
2022/06/26 09:16:00;;;;;;;7.78;4.38;;;22.80;91.30;;;;;;5064250;28;20102;-64
2022/06/26 09:18:34;;;;;;;8.25;3.33;;;22.80;91.20;;;;;;5063845;28;20398;-65
2022/06/26 09:20:59;;;;;;;5.78;3.42;;;22.80;91.10;;;;;;5063293;28;20106;-64
2022/06/26 09:23:25;;;;;;;4.07;2.25;;;22.80;90.90;;;;;;5065426;28;20037;-64
2022/06/26 09:25:51;;;;;;;8.48;3.88;;;22.80;90.70;;;;;;5064955;28;20040;-64
2022/06/26 09:28:21;;;;;;;19.67;2.55;;;22.80;90.60;;;;;;5066544;28;20036;-64
2022/06/26 09:30:58;;;;;;;7.90;3.35;;;22.80;90.60;;;;;;5067075;28;20041;-64
2022/06/26 09:33:26;;;;;;;6.43;4.25;;;22.80;90.60;;;;;;5067826;28;20089;-64
2022/06/26 09:35:53;;;;;;;7.53;3.80;;;22.80;90.60;;;;;;5069055;28;20032;-65
2022/06/26 09:38:24;;;;;;;9.80;3.65;;;22.90;90.70;;;;;;5066422;28;20028;-64
2022/06/26 09:40:59;;;;;;;6.68;3.70;;;22.80;90.90;;;;;;5068242;28;20131;-64
2022/06/26 09:43:38;;;;;;;5.70;3.42;;;22.90;90.60;;;;;;5067591;28;20048;-64
2022/06/26 09:46:06;;;;;;;7.80;3.38;;;22.90;90.60;;;;;;5070121;28;20044;-64
2022/06/26 09:48:33;;;;;;;4.18;2.50;;;22.90;90.60;;;;;;5068350;28;20020;-65
2022/06/26 09:51:01;;;;;;;5.45;2.90;;;22.90;90.30;;;;;;5057253;28;20017;-64
2022/06/26 09:53:28;;;;;;;7.85;3.03;;;22.80;90.10;;;;;;5067352;28;20403;-65
2022/06/26 09:55:56;;;;;;;4.68;2.22;;;22.90;90.30;;;;;;5066267;28;20029;-64
2022/06/26 09:58:24;;;;;;;4.32;2.78;;;22.90;90.20;;;;;;5063294;28;20036;-64
2022/06/26 10:06:25;;;;;;;6.47;3.83;;;23.00;89.70;;;;;;5055042;28;20362;-64
2022/06/26 10:08:52;;;;;;;5.40;3.50;;;23.00;89.10;;;;;;5060630;28;20024;-64
2022/06/26 10:11:18;;;;;;;5.20;3.10;;;23.10;89.90;;;;;;5071257;28;20077;-64
2022/06/26 10:13:45;;;;;;;5.53;2.78;;;23.10;90.00;;;;;;5069351;28;20020;-65
2022/06/26 10:16:37;;;;;;;5.55;2.30;;;23.20;90.00;;;;;;5064808;28;20036;-63
2022/06/26 10:19:22;;;;;;;4.25;1.92;;;23.20;89.40;;;;;;5045775;28;20087;-63
2022/06/26 10:21:48;;;;;;;2.22;1.40;;;23.20;88.70;;;;;;5068848;28;20036;-65
2022/06/26 10:24:17;;;;;;;2.75;1.50;;;23.30;88.90;;;;;;5062188;28;20040;-63
2022/06/26 10:26:57;;;;;;;11.18;2.88;;;23.30;88.80;;;;;;5055143;28;20488;-65
2022/06/26 10:29:37;;;;;;;8.23;2.53;;;23.30;88.20;;;;;;5063338;28;20025;-65
2022/06/26 10:32:03;;;;;;;4.05;2.13;;;23.30;88.40;;;;;;5067592;28;20028;-65
2022/06/26 10:34:31;;;;;;;4.93;1.85;;;23.30;87.90;;;;;;5063942;28;20021;-64
2022/06/26 10:37:01;;;;;;;6.45;2.10;;;23.30;87.60;;;;;;5069583;28;20029;-67
2022/06/26 10:39:40;;;;;;;4.78;2.60;;;23.30;87.40;;;;;;5065091;28;20059;-64
2022/06/26 10:45:00;;;;;;;8.40;1.75;;;23.40;86.70;;;;;;5067110;28;20055;-64
2022/06/26 10:47:47;;;;;;;2.05;1.23;;;23.50;86.80;;;;;;5056544;28;20033;-65
2022/06/26 10:50:33;;;;;;;6.00;2.10;;;23.50;86.50;;;;;;5067495;28;20021;-65
2022/06/26 10:53:34;;;;;;;3.13;0.90;;;23.50;86.40;;;;;;5068492;28;20431;-64
2022/06/26 10:56:05;;;;;;;4.45;2.10;;;23.50;86.20;;;;;;5068041;28;20059;-64
2022/06/26 10:58:35;;;;;;;2.40;1.75;;;23.50;85.20;;;;;;5066080;28;20032;-64
2022/06/26 11:01:03;;;;;;;3.00;1.77;;;23.50;85.20;;;;;;5066172;28;20032;-64
2022/06/26 11:03:30;;;;;;;5.93;1.90;;;23.60;84.90;;;;;;5069450;28;20126;-64
2022/06/26 11:06:16;;;;;;;2.20;1.35;;;23.60;84.60;;;;;;5067658;28;20147;-64
2022/06/26 11:08:45;;;;;;;3.40;1.67;;;23.70;84.70;;;;;;5065605;28;20512;-64
2022/06/26 11:11:25;;;;;;;5.05;1.95;;;23.70;84.70;;;;;;5066606;28;20086;-64
2022/06/26 11:13:53;;;;;;;3.55;1.80;;;23.70;84.50;;;;;;5068682;28;20107;-63
2022/06/26 11:16:35;;;;;;;6.43;2.08;;;23.70;84.60;;;;;;5069192;28;20504;-64
2022/06/26 11:19:06;;;;;;;3.00;1.92;;;23.80;84.40;;;;;;5067148;28;20055;-64
2022/06/26 11:21:32;;;;;;;3.63;1.90;;;23.80;84.10;;;;;;5067500;28;20024;-64
2022/06/26 11:23:59;;;;;;;3.85;1.80;;;23.80;84.50;;;;;;5067013;28;20467;-63
2022/06/26 11:26:25;;;;;;;3.00;1.70;;;23.90;84.70;;;;;;5065686;28;20028;-63
2022/06/26 11:29:03;;;;;;;3.20;1.85;;;23.90;84.30;;;;;;5065476;28;20404;-64
2022/06/26 11:31:31;;;;;;;3.72;1.67;;;24.00;84.10;;;;;;5068867;28;20063;-63
2022/06/26 11:34:08;;;;;;;3.70;2.00;;;24.00;83.80;;;;;;5070616;28;20472;-63
2022/06/26 11:36:34;;;;;;;2.45;1.60;;;24.10;83.40;;;;;;5065400;28;20123;-63
2022/06/26 11:39:03;;;;;;;2.75;1.52;;;24.10;84.50;;;;;;5071285;28;20099;-64
2022/06/26 11:41:29;;;;;;;2.10;1.60;;;24.20;83.50;;;;;;5070392;28;20434;-64
2022/06/26 11:43:56;;;;;;;2.95;1.60;;;24.30;83.40;;;;;;5068501;28;20032;-64
2022/06/26 11:46:23;;;;;;;3.10;1.70;;;24.30;82.60;;;;;;5065808;28;20048;-63
2022/06/26 11:48:53;;;;;;;2.38;1.50;;;24.40;82.90;;;;;;5068052;28;20143;-63
2022/06/26 11:51:20;;;;;;;2.15;1.55;;;24.40;82.40;;;;;;5066248;28;20160;-64
2022/06/26 11:53:49;;;;;;;2.92;1.65;;;24.50;82.50;;;;;;5063683;28;20047;-63
2022/06/26 11:56:21;;;;;;;3.22;1.42;;;24.50;82.00;;;;;;5068814;28;20107;-63
2022/06/26 11:58:50;;;;;;;4.18;1.70;;;24.50;81.70;;;;;;5071157;28;20144;-63
2022/06/26 12:01:16;;;;;;;3.22;1.80;;;24.50;82.00;;;;;;5062440;28;20443;-63
2022/06/26 12:03:49;;;;;;;2.85;1.60;;;24.60;82.10;;;;;;5070063;28;20024;-63
2022/06/26 12:06:39;;;;;;;3.38;1.67;;;24.60;82.00;;;;;;5069276;28;20089;-64
2022/06/26 12:09:19;;;;;;;3.08;2.08;;;24.60;82.40;;;;;;5068378;28;20033;-64
2022/06/26 12:11:49;;;;;;;1.77;1.38;;;24.70;81.20;;;;;;5062378;28;20281;-63
2022/06/26 12:14:19;;;;;;;4.32;1.77;;;24.70;81.80;;;;;;5067291;28;20090;-63
2022/06/26 12:16:49;;;;;;;3.47;1.95;;;24.70;81.50;;;;;;5069073;28;20413;-64
2022/06/26 12:19:18;;;;;;;3.90;1.73;;;24.70;81.00;;;;;;5061888;28;20044;-64
2022/06/26 12:21:46;;;;;;;8.18;1.73;;;24.80;81.20;;;;;;5065010;28;20060;-64
2022/06/26 12:24:13;;;;;;;4.50;2.17;;;24.90;81.40;;;;;;5067006;28;20029;-64
2022/06/26 12:26:39;;;;;;;3.63;1.98;;;24.90;80.70;;;;;;5067686;28;20094;-63
2022/06/26 12:29:19;;;;;;;4.45;1.80;;;25.00;80.80;;;;;;5069071;28;20050;-63
2022/06/26 12:31:44;;;;;;;4.15;1.73;;;25.00;80.70;;;;;;5064388;28;20037;-64
2022/06/26 12:34:10;;;;;;;3.47;2.00;;;25.00;81.40;;;;;;5067903;28;20029;-64
2022/06/26 12:36:37;;;;;;;5.05;2.10;;;25.10;80.70;;;;;;5069198;28;20040;-64
2022/06/26 12:39:05;;;;;;;3.58;1.80;;;25.10;80.60;;;;;;5065802;28;20138;-64
2022/06/26 12:41:30;;;;;;;4.82;2.00;;;25.20;81.00;;;;;;5069216;28;20537;-64
2022/06/26 12:44:01;;;;;;;4.97;2.00;;;25.20;80.50;;;;;;5069536;28;20028;-63
2022/06/26 12:46:27;;;;;;;5.43;2.30;;;25.20;80.30;;;;;;5069803;28;20044;-63
2022/06/26 12:48:54;;;;;;;4.40;1.92;;;25.30;80.50;;;;;;5064954;28;20453;-64
2022/06/26 12:51:21;;;;;;;2.05;1.55;;;25.30;80.90;;;;;;5067599;28;20055;-67
2022/06/26 12:53:48;;;;;;;3.75;1.90;;;25.40;81.00;;;;;;5062692;28;20029;-64
2022/06/26 12:56:14;;;;;;;6.85;2.30;;;25.50;80.40;;;;;;5068333;28;20031;-65
2022/06/26 12:58:40;;;;;;;5.88;1.95;;;25.50;80.10;;;;;;5069044;28;20036;-64
2022/06/26 13:01:06;;;;;;;4.95;1.92;;;25.50;79.70;;;;;;5067145;28;20051;-64
2022/06/26 13:03:33;;;;;;;4.82;1.80;;;25.50;80.00;;;;;;5066059;28;20032;-65